sensor_id;sensor_type;location;lat;lon;timestamp;temperature;humidity
25280;DHT22;13225;47.804;12.116;2022-10-20T00:00:55;11.80;99.90
25280;DHT22;13225;47.804;12.116;2022-10-20T00:03:21;11.80;99.90
25280;DHT22;13225;47.804;12.116;2022-10-20T00:05:48;11.90;99.90
25280;DHT22;13225;47.804;12.116;2022-10-20T00:08:14;11.90;99.90
25280;DHT22;13225;47.804;12.116;2022-10-20T00:10:40;11.90;99.90
25280;DHT22;13225;47.804;12.116;2022-10-20T00:13:06;11.90;99.90
25280;DHT22;13225;47.804;12.116;2022-10-20T00:15:32;12.00;99.90
25280;DHT22;13225;47.804;12.116;2022-10-20T00:17:57;12.00;99.90
25280;DHT22;13225;47.804;12.116;2022-10-20T00:20:23;12.00;99.90
25280;DHT22;13225;47.804;12.116;2022-10-20T00:22:49;12.10;99.90
25280;DHT22;13225;47.804;12.116;2022-10-20T00:25:14;12.10;99.90
25280;DHT22;13225;47.804;12.116;2022-10-20T00:27:40;12.10;99.90
25280;DHT22;13225;47.804;12.116;2022-10-20T00:30:06;12.20;99.90
25280;DHT22;13225;47.804;12.116;2022-10-20T00:32:32;12.20;99.90
25280;DHT22;13225;47.804;12.116;2022-10-20T00:34:57;12.30;99.90
25280;DHT22;13225;47.804;12.116;2022-10-20T00:37:23;12.30;99.90
25280;DHT22;13225;47.804;12.116;2022-10-20T00:39:49;12.40;99.90
25280;DHT22;13225;47.804;12.116;2022-10-20T00:42:16;12.50;99.90
25280;DHT22;13225;47.804;12.116;2022-10-20T00:47:20;12.60;99.90
25280;DHT22;13225;47.804;12.116;2022-10-20T00:49:47;12.60;99.90
25280;DHT22;13225;47.804;12.116;2022-10-20T00:52:15;12.60;99.90
25280;DHT22;13225;47.804;12.116;2022-10-20T00:54:43;12.60;99.90
25280;DHT22;13225;47.804;12.116;2022-10-20T00:57:08;12.70;99.90
25280;DHT22;13225;47.804;12.116;2022-10-20T00:59:35;12.60;99.90
25280;DHT22;13225;47.804;12.116;2022-10-20T01:02:04;12.60;99.90
25280;DHT22;13225;47.804;12.116;2022-10-20T01:04:31;12.60;99.90
25280;DHT22;13225;47.804;12.116;2022-10-20T01:06:58;12.70;99.90
25280;DHT22;13225;47.804;12.116;2022-10-20T01:09:23;12.70;99.90
25280;DHT22;13225;47.804;12.116;2022-10-20T01:17:42;12.80;99.90
25280;DHT22;13225;47.804;12.116;2022-10-20T01:20:27;12.80;99.90
25280;DHT22;13225;47.804;12.116;2022-10-20T01:28:58;12.80;99.90
25280;DHT22;13225;47.804;12.116;2022-10-20T01:33:57;12.80;99.90
25280;DHT22;13225;47.804;12.116;2022-10-20T01:36:31;12.80;99.90
25280;DHT22;13225;47.804;12.116;2022-10-20T01:39:06;12.80;99.90
25280;DHT22;13225;47.804;12.116;2022-10-20T01:41:47;12.80;99.90
25280;DHT22;13225;47.804;12.116;2022-10-20T01:44:16;12.70;99.90
25280;DHT22;13225;47.804;12.116;2022-10-20T01:46:43;12.70;99.90
25280;DHT22;13225;47.804;12.116;2022-10-20T01:49:11;12.70;99.90
25280;DHT22;13225;47.804;12.116;2022-10-20T01:51:37;12.70;99.90
25280;DHT22;13225;47.804;12.116;2022-10-20T01:54:02;12.70;99.90
25280;DHT22;13225;47.804;12.116;2022-10-20T01:56:51;12.70;99.90
25280;DHT22;13225;47.804;12.116;2022-10-20T02:07:42;12.60;99.90
25280;DHT22;13225;47.804;12.116;2022-10-20T02:10:28;12.60;99.90
25280;DHT22;13225;47.804;12.116;2022-10-20T02:13:00;12.60;99.90
25280;DHT22;13225;47.804;12.116;2022-10-20T02:15:29;12.60;99.90
25280;DHT22;13225;47.804;12.116;2022-10-20T02:18:00;12.60;99.90
25280;DHT22;13225;47.804;12.116;2022-10-20T02:20:29;12.50;99.90
25280;DHT22;13225;47.804;12.116;2022-10-20T02:22:57;12.50;99.90
25280;DHT22;13225;47.804;12.116;2022-10-20T02:25:24;12.40;99.90
25280;DHT22;13225;47.804;12.116;2022-10-20T02:27:50;12.40;99.90
25280;DHT22;13225;47.804;12.116;2022-10-20T02:30:18;12.50;99.90
25280;DHT22;13225;47.804;12.116;2022-10-20T02:32:47;12.40;99.90
25280;DHT22;13225;47.804;12.116;2022-10-20T02:35:17;12.40;99.90
25280;DHT22;13225;47.804;12.116;2022-10-20T02:37:43;12.40;99.90
25280;DHT22;13225;47.804;12.116;2022-10-20T02:40:10;12.40;99.90
25280;DHT22;13225;47.804;12.116;2022-10-20T02:42:35;12.30;99.90
25280;DHT22;13225;47.804;12.116;2022-10-20T02:45:02;12.30;99.90
25280;DHT22;13225;47.804;12.116;2022-10-20T02:47:27;12.30;99.90
25280;DHT22;13225;47.804;12.116;2022-10-20T02:49:54;12.20;99.90
25280;DHT22;13225;47.804;12.116;2022-10-20T02:52:20;12.20;99.90
25280;DHT22;13225;47.804;12.116;2022-10-20T02:54:45;12.10;99.90
25280;DHT22;13225;47.804;12.116;2022-10-20T02:57:11;12.00;99.90
25280;DHT22;13225;47.804;12.116;2022-10-20T02:59:36;12.00;99.90
25280;DHT22;13225;47.804;12.116;2022-10-20T03:02:02;12.00;99.90
25280;DHT22;13225;47.804;12.116;2022-10-20T03:04:28;12.00;99.90
25280;DHT22;13225;47.804;12.116;2022-10-20T03:06:53;11.90;99.90
25280;DHT22;13225;47.804;12.116;2022-10-20T03:09:19;11.90;99.90
25280;DHT22;13225;47.804;12.116;2022-10-20T03:11:45;11.90;99.90
25280;DHT22;13225;47.804;12.116;2022-10-20T03:14:11;11.90;99.90
25280;DHT22;13225;47.804;12.116;2022-10-20T03:16:36;11.80;99.90
25280;DHT22;13225;47.804;12.116;2022-10-20T03:19:02;11.80;99.90
25280;DHT22;13225;47.804;12.116;2022-10-20T03:21:28;11.80;99.90
25280;DHT22;13225;47.804;12.116;2022-10-20T03:23:54;11.80;99.90
25280;DHT22;13225;47.804;12.116;2022-10-20T03:26:19;11.80;99.90
25280;DHT22;13225;47.804;12.116;2022-10-20T03:28:45;11.80;99.90
25280;DHT22;13225;47.804;12.116;2022-10-20T03:31:11;11.80;99.90
25280;DHT22;13225;47.804;12.116;2022-10-20T03:33:36;11.70;99.90
25280;DHT22;13225;47.804;12.116;2022-10-20T03:36:03;11.70;99.90
25280;DHT22;13225;47.804;12.116;2022-10-20T03:38:29;11.70;99.90
25280;DHT22;13225;47.804;12.116;2022-10-20T03:40:54;11.70;99.90
25280;DHT22;13225;47.804;12.116;2022-10-20T03:43:20;11.60;99.90
25280;DHT22;13225;47.804;12.116;2022-10-20T03:45:46;11.50;99.90
25280;DHT22;13225;47.804;12.116;2022-10-20T03:48:12;11.50;99.90
25280;DHT22;13225;47.804;12.116;2022-10-20T03:50:38;11.50;99.90
25280;DHT22;13225;47.804;12.116;2022-10-20T03:53:04;11.40;99.90
25280;DHT22;13225;47.804;12.116;2022-10-20T03:55:30;11.40;99.90
25280;DHT22;13225;47.804;12.116;2022-10-20T03:57:56;11.30;99.90
25280;DHT22;13225;47.804;12.116;2022-10-20T04:00:21;11.30;99.90
25280;DHT22;13225;47.804;12.116;2022-10-20T04:02:47;11.30;99.90
25280;DHT22;13225;47.804;12.116;2022-10-20T04:05:18;11.30;99.90
25280;DHT22;13225;47.804;12.116;2022-10-20T04:07:44;11.20;99.90
25280;DHT22;13225;47.804;12.116;2022-10-20T04:10:11;11.20;99.90
25280;DHT22;13225;47.804;12.116;2022-10-20T04:12:37;11.10;99.90
25280;DHT22;13225;47.804;12.116;2022-10-20T04:15:04;11.10;99.90
25280;DHT22;13225;47.804;12.116;2022-10-20T04:17:30;11.10;99.90
25280;DHT22;13225;47.804;12.116;2022-10-20T04:19:55;11.00;99.90
25280;DHT22;13225;47.804;12.116;2022-10-20T04:22:21;11.00;99.90
25280;DHT22;13225;47.804;12.116;2022-10-20T04:24:47;11.00;99.90
25280;DHT22;13225;47.804;12.116;2022-10-20T04:27:12;11.00;99.90
25280;DHT22;13225;47.804;12.116;2022-10-20T04:29:38;11.00;99.90
25280;DHT22;13225;47.804;12.116;2022-10-20T04:32:04;10.90;99.90
25280;DHT22;13225;47.804;12.116;2022-10-20T04:34:29;10.90;99.90
25280;DHT22;13225;47.804;12.116;2022-10-20T04:36:55;10.90;99.90
25280;DHT22;13225;47.804;12.116;2022-10-20T04:39:20;10.90;99.90
25280;DHT22;13225;47.804;12.116;2022-10-20T04:41:46;10.90;99.90
25280;DHT22;13225;47.804;12.116;2022-10-20T04:44:12;10.80;99.90
25280;DHT22;13225;47.804;12.116;2022-10-20T04:46:38;10.80;99.90
25280;DHT22;13225;47.804;12.116;2022-10-20T04:49:04;10.80;99.90
25280;DHT22;13225;47.804;12.116;2022-10-20T04:51:29;10.80;99.90
25280;DHT22;13225;47.804;12.116;2022-10-20T04:53:56;10.80;99.90
25280;DHT22;13225;47.804;12.116;2022-10-20T04:56:21;10.80;99.90
25280;DHT22;13225;47.804;12.116;2022-10-20T04:58:53;10.80;99.90
25280;DHT22;13225;47.804;12.116;2022-10-20T05:01:21;10.80;99.90
25280;DHT22;13225;47.804;12.116;2022-10-20T05:03:47;10.80;99.90
25280;DHT22;13225;47.804;12.116;2022-10-20T05:06:27;10.80;99.90
25280;DHT22;13225;47.804;12.116;2022-10-20T05:08:56;10.80;99.90
25280;DHT22;13225;47.804;12.116;2022-10-20T05:11:23;10.70;99.90
25280;DHT22;13225;47.804;12.116;2022-10-20T05:13:49;10.70;99.90
25280;DHT22;13225;47.804;12.116;2022-10-20T05:16:16;10.70;99.90
25280;DHT22;13225;47.804;12.116;2022-10-20T05:18:42;10.70;99.90
25280;DHT22;13225;47.804;12.116;2022-10-20T05:21:14;10.60;99.90
25280;DHT22;13225;47.804;12.116;2022-10-20T05:23:41;10.60;99.90
25280;DHT22;13225;47.804;12.116;2022-10-20T05:26:10;10.60;99.90
25280;DHT22;13225;47.804;12.116;2022-10-20T05:28:35;10.60;99.90
25280;DHT22;13225;47.804;12.116;2022-10-20T05:31:03;10.60;99.90
25280;DHT22;13225;47.804;12.116;2022-10-20T05:33:29;10.60;99.90
25280;DHT22;13225;47.804;12.116;2022-10-20T05:35:55;10.60;99.90
25280;DHT22;13225;47.804;12.116;2022-10-20T05:38:21;10.50;99.90
25280;DHT22;13225;47.804;12.116;2022-10-20T05:40:46;10.40;99.90
25280;DHT22;13225;47.804;12.116;2022-10-20T05:43:12;10.30;99.90
25280;DHT22;13225;47.804;12.116;2022-10-20T05:45:38;10.40;99.90
25280;DHT22;13225;47.804;12.116;2022-10-20T05:48:04;10.40;99.90
25280;DHT22;13225;47.804;12.116;2022-10-20T05:50:29;10.40;99.90
25280;DHT22;13225;47.804;12.116;2022-10-20T05:52:55;10.40;99.90
25280;DHT22;13225;47.804;12.116;2022-10-20T05:55:21;10.40;99.90
25280;DHT22;13225;47.804;12.116;2022-10-20T05:57:48;10.50;99.90
25280;DHT22;13225;47.804;12.116;2022-10-20T06:00:14;10.50;99.90
25280;DHT22;13225;47.804;12.116;2022-10-20T06:02:41;10.50;99.90
25280;DHT22;13225;47.804;12.116;2022-10-20T06:05:06;10.50;99.90
25280;DHT22;13225;47.804;12.116;2022-10-20T06:07:33;10.50;99.90
25280;DHT22;13225;47.804;12.116;2022-10-20T06:09:59;10.50;99.90
25280;DHT22;13225;47.804;12.116;2022-10-20T06:12:24;10.50;99.90
25280;DHT22;13225;47.804;12.116;2022-10-20T06:14:50;10.50;99.90
25280;DHT22;13225;47.804;12.116;2022-10-20T06:17:16;10.60;99.90
25280;DHT22;13225;47.804;12.116;2022-10-20T06:19:41;10.60;99.90
25280;DHT22;13225;47.804;12.116;2022-10-20T06:22:07;10.60;99.90
25280;DHT22;13225;47.804;12.116;2022-10-20T06:24:33;10.60;99.90
25280;DHT22;13225;47.804;12.116;2022-10-20T06:26:59;10.70;99.90
25280;DHT22;13225;47.804;12.116;2022-10-20T06:29:24;10.70;99.90
25280;DHT22;13225;47.804;12.116;2022-10-20T06:31:51;10.70;99.90
25280;DHT22;13225;47.804;12.116;2022-10-20T06:34:21;10.70;99.90
25280;DHT22;13225;47.804;12.116;2022-10-20T06:36:48;10.70;99.90
25280;DHT22;13225;47.804;12.116;2022-10-20T06:39:16;10.70;99.90
25280;DHT22;13225;47.804;12.116;2022-10-20T06:41:44;10.80;99.90
25280;DHT22;13225;47.804;12.116;2022-10-20T06:44:10;10.70;99.90
25280;DHT22;13225;47.804;12.116;2022-10-20T06:46:38;10.70;99.90
25280;DHT22;13225;47.804;12.116;2022-10-20T06:49:06;10.70;99.90
25280;DHT22;13225;47.804;12.116;2022-10-20T06:51:33;10.70;99.90
25280;DHT22;13225;47.804;12.116;2022-10-20T06:54:00;10.70;99.90
25280;DHT22;13225;47.804;12.116;2022-10-20T06:56:28;10.80;99.90
25280;DHT22;13225;47.804;12.116;2022-10-20T06:58:55;11.00;99.90
25280;DHT22;13225;47.804;12.116;2022-10-20T07:01:32;11.10;99.90
25280;DHT22;13225;47.804;12.116;2022-10-20T07:04:01;11.20;99.90
25280;DHT22;13225;47.804;12.116;2022-10-20T07:06:31;11.30;99.90
25280;DHT22;13225;47.804;12.116;2022-10-20T07:08:57;11.40;99.90
25280;DHT22;13225;47.804;12.116;2022-10-20T07:11:28;11.50;99.90
25280;DHT22;13225;47.804;12.116;2022-10-20T07:13:56;11.60;99.90
25280;DHT22;13225;47.804;12.116;2022-10-20T07:16:23;11.60;99.90
25280;DHT22;13225;47.804;12.116;2022-10-20T07:18:49;11.60;99.90
25280;DHT22;13225;47.804;12.116;2022-10-20T07:21:18;11.60;99.90
25280;DHT22;13225;47.804;12.116;2022-10-20T07:23:44;11.70;99.90
25280;DHT22;13225;47.804;12.116;2022-10-20T07:26:22;11.80;99.90
25280;DHT22;13225;47.804;12.116;2022-10-20T07:28:50;11.90;99.90
25280;DHT22;13225;47.804;12.116;2022-10-20T07:31:24;12.00;99.90
25280;DHT22;13225;47.804;12.116;2022-10-20T07:33:50;12.00;99.90
25280;DHT22;13225;47.804;12.116;2022-10-20T07:36:24;12.00;99.90
25280;DHT22;13225;47.804;12.116;2022-10-20T07:38:52;12.10;99.90
25280;DHT22;13225;47.804;12.116;2022-10-20T07:41:19;12.10;99.90
25280;DHT22;13225;47.804;12.116;2022-10-20T07:43:45;12.20;99.90
25280;DHT22;13225;47.804;12.116;2022-10-20T07:46:12;12.10;99.90
25280;DHT22;13225;47.804;12.116;2022-10-20T07:48:39;12.00;99.90
25280;DHT22;13225;47.804;12.116;2022-10-20T07:51:34;11.90;99.90
25280;DHT22;13225;47.804;12.116;2022-10-20T07:54:04;12.00;99.90
25280;DHT22;13225;47.804;12.116;2022-10-20T07:56:41;12.00;99.90
25280;DHT22;13225;47.804;12.116;2022-10-20T07:59:08;12.10;99.90
25280;DHT22;13225;47.804;12.116;2022-10-20T08:01:35;11.90;99.90
25280;DHT22;13225;47.804;12.116;2022-10-20T08:04:00;11.90;99.90
25280;DHT22;13225;47.804;12.116;2022-10-20T08:06:26;11.80;99.90
25280;DHT22;13225;47.804;12.116;2022-10-20T08:08:52;11.90;99.90
25280;DHT22;13225;47.804;12.116;2022-10-20T08:11:18;12.00;99.90
25280;DHT22;13225;47.804;12.116;2022-10-20T08:13:44;11.90;99.90
25280;DHT22;13225;47.804;12.116;2022-10-20T08:16:11;11.90;99.90
25280;DHT22;13225;47.804;12.116;2022-10-20T08:18:37;11.90;99.90
25280;DHT22;13225;47.804;12.116;2022-10-20T08:21:13;12.00;99.90
25280;DHT22;13225;47.804;12.116;2022-10-20T08:23:41;12.10;99.90
25280;DHT22;13225;47.804;12.116;2022-10-20T08:26:08;12.00;99.90
25280;DHT22;13225;47.804;12.116;2022-10-20T08:28:34;11.80;99.90
25280;DHT22;13225;47.804;12.116;2022-10-20T08:31:05;11.80;99.90
25280;DHT22;13225;47.804;12.116;2022-10-20T08:33:33;11.90;99.90
25280;DHT22;13225;47.804;12.116;2022-10-20T08:36:04;12.10;99.90
25280;DHT22;13225;47.804;12.116;2022-10-20T08:38:30;12.20;99.90
25280;DHT22;13225;47.804;12.116;2022-10-20T08:40:57;12.20;99.90
25280;DHT22;13225;47.804;12.116;2022-10-20T08:43:24;12.10;99.90
25280;DHT22;13225;47.804;12.116;2022-10-20T08:45:49;12.20;99.90
25280;DHT22;13225;47.804;12.116;2022-10-20T08:48:19;12.40;99.90
25280;DHT22;13225;47.804;12.116;2022-10-20T08:50:48;12.40;99.90
25280;DHT22;13225;47.804;12.116;2022-10-20T08:53:19;12.50;99.90
25280;DHT22;13225;47.804;12.116;2022-10-20T08:55:48;12.50;99.90
25280;DHT22;13225;47.804;12.116;2022-10-20T08:58:23;12.50;99.90
25280;DHT22;13225;47.804;12.116;2022-10-20T09:01:00;12.50;99.90
25280;DHT22;13225;47.804;12.116;2022-10-20T09:03:32;12.50;99.90
25280;DHT22;13225;47.804;12.116;2022-10-20T09:06:01;12.60;99.90
25280;DHT22;13225;47.804;12.116;2022-10-20T09:08:30;12.60;99.90
25280;DHT22;13225;47.804;12.116;2022-10-20T09:10:58;12.80;99.90
25280;DHT22;13225;47.804;12.116;2022-10-20T09:13:26;13.30;99.90
25280;DHT22;13225;47.804;12.116;2022-10-20T09:15:59;13.40;99.90
25280;DHT22;13225;47.804;12.116;2022-10-20T09:18:28;13.70;99.90
25280;DHT22;13225;47.804;12.116;2022-10-20T09:21:15;13.70;99.90
25280;DHT22;13225;47.804;12.116;2022-10-20T09:23:47;13.60;99.90
25280;DHT22;13225;47.804;12.116;2022-10-20T09:26:27;13.50;99.90
25280;DHT22;13225;47.804;12.116;2022-10-20T09:29:11;13.30;99.90
25280;DHT22;13225;47.804;12.116;2022-10-20T09:31:39;13.30;99.90
25280;DHT22;13225;47.804;12.116;2022-10-20T09:34:31;13.40;99.90
25280;DHT22;13225;47.804;12.116;2022-10-20T09:37:11;13.50;99.90
25280;DHT22;13225;47.804;12.116;2022-10-20T09:39:53;13.20;99.90
25280;DHT22;13225;47.804;12.116;2022-10-20T09:42:33;13.10;99.90
25280;DHT22;13225;47.804;12.116;2022-10-20T09:45:04;13.10;99.90
25280;DHT22;13225;47.804;12.116;2022-10-20T09:47:32;13.40;99.90
25280;DHT22;13225;47.804;12.116;2022-10-20T09:50:04;13.10;99.90
25280;DHT22;13225;47.804;12.116;2022-10-20T09:52:36;13.20;99.90
25280;DHT22;13225;47.804;12.116;2022-10-20T09:55:28;13.10;99.90
25280;DHT22;13225;47.804;12.116;2022-10-20T09:57:57;13.20;99.90
25280;DHT22;13225;47.804;12.116;2022-10-20T10:00:36;13.40;99.90
25280;DHT22;13225;47.804;12.116;2022-10-20T10:03:19;13.50;99.90
25280;DHT22;13225;47.804;12.116;2022-10-20T10:08:23;13.50;99.90
25280;DHT22;13225;47.804;12.116;2022-10-20T10:11:00;13.80;99.90
25280;DHT22;13225;47.804;12.116;2022-10-20T10:13:29;14.00;99.90
25280;DHT22;13225;47.804;12.116;2022-10-20T10:16:00;14.30;99.90
25280;DHT22;13225;47.804;12.116;2022-10-20T10:18:27;14.50;99.90
25280;DHT22;13225;47.804;12.116;2022-10-20T10:21:06;14.60;99.90
25280;DHT22;13225;47.804;12.116;2022-10-20T10:23:35;14.70;99.90
25280;DHT22;13225;47.804;12.116;2022-10-20T10:26:31;14.80;99.90
25280;DHT22;13225;47.804;12.116;2022-10-20T10:28:58;14.70;99.90
25280;DHT22;13225;47.804;12.116;2022-10-20T10:31:25;14.90;99.90
25280;DHT22;13225;47.804;12.116;2022-10-20T10:34:21;14.80;99.90
25280;DHT22;13225;47.804;12.116;2022-10-20T10:36:45;14.80;99.90
25280;DHT22;13225;47.804;12.116;2022-10-20T10:39:13;15.00;99.90
25280;DHT22;13225;47.804;12.116;2022-10-20T10:52:55;15.70;99.90
25280;DHT22;13225;47.804;12.116;2022-10-20T10:55:53;15.80;99.90
25280;DHT22;13225;47.804;12.116;2022-10-20T10:58:58;16.20;99.90
25280;DHT22;13225;47.804;12.116;2022-10-20T11:01:46;16.30;99.90
25280;DHT22;13225;47.804;12.116;2022-10-20T11:06:50;16.30;99.90
25280;DHT22;13225;47.804;12.116;2022-10-20T11:14:53;16.60;99.90
25280;DHT22;13225;47.804;12.116;2022-10-20T11:17:38;16.70;99.90
25280;DHT22;13225;47.804;12.116;2022-10-20T11:23:24;17.00;99.90
25280;DHT22;13225;47.804;12.116;2022-10-20T11:26:11;17.30;99.90
25280;DHT22;13225;47.804;12.116;2022-10-20T11:28:41;17.20;99.90
25280;DHT22;13225;47.804;12.116;2022-10-20T11:34:17;17.80;99.90
25280;DHT22;13225;47.804;12.116;2022-10-20T11:36:48;18.10;99.90
25280;DHT22;13225;47.804;12.116;2022-10-20T11:39:47;18.00;99.90
25280;DHT22;13225;47.804;12.116;2022-10-20T11:42:34;18.30;99.90
25280;DHT22;13225;47.804;12.116;2022-10-20T11:45:04;18.50;99.90
25280;DHT22;13225;47.804;12.116;2022-10-20T11:47:40;18.80;99.90
25280;DHT22;13225;47.804;12.116;2022-10-20T11:50:10;18.90;99.90
25280;DHT22;13225;47.804;12.116;2022-10-20T11:55:42;18.70;99.90
25280;DHT22;13225;47.804;12.116;2022-10-20T12:01:23;19.00;99.90
25280;DHT22;13225;47.804;12.116;2022-10-20T12:12:24;19.50;99.90
25280;DHT22;13225;47.804;12.116;2022-10-20T12:14:56;19.20;99.90
25280;DHT22;13225;47.804;12.116;2022-10-20T12:17:36;19.00;99.90
25280;DHT22;13225;47.804;12.116;2022-10-20T12:22:52;18.90;99.90
25280;DHT22;13225;47.804;12.116;2022-10-20T12:33:19;18.60;99.90
25280;DHT22;13225;47.804;12.116;2022-10-20T12:36:12;18.60;99.90
25280;DHT22;13225;47.804;12.116;2022-10-20T12:38:39;18.50;99.90
25280;DHT22;13225;47.804;12.116;2022-10-20T12:41:07;18.50;99.90
25280;DHT22;13225;47.804;12.116;2022-10-20T12:43:50;18.50;99.90
25280;DHT22;13225;47.804;12.116;2022-10-20T12:46:20;18.50;99.90
25280;DHT22;13225;47.804;12.116;2022-10-20T12:48:48;18.80;99.90
25280;DHT22;13225;47.804;12.116;2022-10-20T12:54:37;19.70;99.90
25280;DHT22;13225;47.804;12.116;2022-10-20T13:00:01;21.20;99.90
25280;DHT22;13225;47.804;12.116;2022-10-20T13:02:31;21.50;99.90
25280;DHT22;13225;47.804;12.116;2022-10-20T13:05:02;21.70;99.90
25280;DHT22;13225;47.804;12.116;2022-10-20T13:10:35;21.90;99.90
25280;DHT22;13225;47.804;12.116;2022-10-20T13:15:36;21.20;99.90
25280;DHT22;13225;47.804;12.116;2022-10-20T13:20:59;20.10;99.90
25280;DHT22;13225;47.804;12.116;2022-10-20T13:26:08;19.40;99.90
25280;DHT22;13225;47.804;12.116;2022-10-20T13:28:44;19.30;99.90
25280;DHT22;13225;47.804;12.116;2022-10-20T13:47:46;20.60;99.90
25280;DHT22;13225;47.804;12.116;2022-10-20T13:50:20;20.50;99.90
25280;DHT22;13225;47.804;12.116;2022-10-20T13:52:50;20.50;99.90
25280;DHT22;13225;47.804;12.116;2022-10-20T13:55:21;20.30;99.90
25280;DHT22;13225;47.804;12.116;2022-10-20T13:57:56;20.10;99.90
25280;DHT22;13225;47.804;12.116;2022-10-20T14:00:24;19.90;99.90
25280;DHT22;13225;47.804;12.116;2022-10-20T14:02:55;19.80;99.90
25280;DHT22;13225;47.804;12.116;2022-10-20T14:05:23;19.70;99.90
25280;DHT22;13225;47.804;12.116;2022-10-20T14:07:48;19.70;99.90
25280;DHT22;13225;47.804;12.116;2022-10-20T14:10:27;19.60;99.90
25280;DHT22;13225;47.804;12.116;2022-10-20T14:12:55;19.60;99.90
25280;DHT22;13225;47.804;12.116;2022-10-20T14:15:31;19.50;99.90
25280;DHT22;13225;47.804;12.116;2022-10-20T14:18:00;19.60;99.90
25280;DHT22;13225;47.804;12.116;2022-10-20T14:20:27;19.70;99.90
25280;DHT22;13225;47.804;12.116;2022-10-20T14:22:54;19.60;99.90
25280;DHT22;13225;47.804;12.116;2022-10-20T14:25:21;19.50;99.90
25280;DHT22;13225;47.804;12.116;2022-10-20T14:27:47;19.40;99.90
25280;DHT22;13225;47.804;12.116;2022-10-20T14:30:17;19.40;99.90
25280;DHT22;13225;47.804;12.116;2022-10-20T14:32:44;19.40;99.90
25280;DHT22;13225;47.804;12.116;2022-10-20T14:37:58;19.20;99.90
25280;DHT22;13225;47.804;12.116;2022-10-20T14:40:27;19.10;99.90
25280;DHT22;13225;47.804;12.116;2022-10-20T14:43:14;18.90;99.90
25280;DHT22;13225;47.804;12.116;2022-10-20T14:45:53;18.90;99.90
25280;DHT22;13225;47.804;12.116;2022-10-20T14:48:20;18.80;99.90
25280;DHT22;13225;47.804;12.116;2022-10-20T14:50:46;18.70;99.90
25280;DHT22;13225;47.804;12.116;2022-10-20T14:53:32;18.80;99.90
25280;DHT22;13225;47.804;12.116;2022-10-20T14:56:00;18.80;99.90
25280;DHT22;13225;47.804;12.116;2022-10-20T14:58:33;18.70;99.90
25280;DHT22;13225;47.804;12.116;2022-10-20T15:01:22;18.50;99.90
25280;DHT22;13225;47.804;12.116;2022-10-20T15:06:36;18.30;99.90
25280;DHT22;13225;47.804;12.116;2022-10-20T15:09:02;18.40;99.90
25280;DHT22;13225;47.804;12.116;2022-10-20T15:11:28;18.40;99.90
25280;DHT22;13225;47.804;12.116;2022-10-20T15:13:57;18.20;99.90
25280;DHT22;13225;47.804;12.116;2022-10-20T15:16:43;17.90;99.90
25280;DHT22;13225;47.804;12.116;2022-10-20T15:19:29;17.70;99.90
25280;DHT22;13225;47.804;12.116;2022-10-20T15:21:59;17.50;99.90
25280;DHT22;13225;47.804;12.116;2022-10-20T15:24:26;17.30;99.90
25280;DHT22;13225;47.804;12.116;2022-10-20T15:26:52;17.30;99.90
25280;DHT22;13225;47.804;12.116;2022-10-20T15:29:17;17.30;99.90
25280;DHT22;13225;47.804;12.116;2022-10-20T15:31:43;17.30;99.90
25280;DHT22;13225;47.804;12.116;2022-10-20T15:34:09;17.30;99.90
25280;DHT22;13225;47.804;12.116;2022-10-20T15:36:35;17.30;99.90
25280;DHT22;13225;47.804;12.116;2022-10-20T15:39:03;17.20;99.90
25280;DHT22;13225;47.804;12.116;2022-10-20T15:41:31;17.10;99.90
25280;DHT22;13225;47.804;12.116;2022-10-20T15:44:13;17.10;99.90
25280;DHT22;13225;47.804;12.116;2022-10-20T15:46:40;16.90;99.90
25280;DHT22;13225;47.804;12.116;2022-10-20T15:49:06;16.80;99.90
25280;DHT22;13225;47.804;12.116;2022-10-20T15:51:33;16.70;99.90
25280;DHT22;13225;47.804;12.116;2022-10-20T15:54:00;16.60;99.90
25280;DHT22;13225;47.804;12.116;2022-10-20T15:56:26;16.40;99.90
25280;DHT22;13225;47.804;12.116;2022-10-20T15:58:52;16.40;99.90
25280;DHT22;13225;47.804;12.116;2022-10-20T16:01:19;16.30;99.90
25280;DHT22;13225;47.804;12.116;2022-10-20T16:03:46;16.20;99.90
25280;DHT22;13225;47.804;12.116;2022-10-20T16:06:13;16.00;99.90
25280;DHT22;13225;47.804;12.116;2022-10-20T16:08:41;15.90;99.90
25280;DHT22;13225;47.804;12.116;2022-10-20T16:11:07;15.90;99.90
25280;DHT22;13225;47.804;12.116;2022-10-20T16:13:34;15.80;99.90
25280;DHT22;13225;47.804;12.116;2022-10-20T16:16:01;15.70;99.90
25280;DHT22;13225;47.804;12.116;2022-10-20T16:18:27;15.50;99.90
25280;DHT22;13225;47.804;12.116;2022-10-20T16:20:53;15.50;99.90
25280;DHT22;13225;47.804;12.116;2022-10-20T16:23:18;15.50;99.90
25280;DHT22;13225;47.804;12.116;2022-10-20T16:25:44;15.40;99.90
25280;DHT22;13225;47.804;12.116;2022-10-20T16:28:10;15.20;99.90
25280;DHT22;13225;47.804;12.116;2022-10-20T16:30:36;15.20;99.90
25280;DHT22;13225;47.804;12.116;2022-10-20T16:33:01;15.10;99.90
25280;DHT22;13225;47.804;12.116;2022-10-20T16:35:27;15.00;99.90
25280;DHT22;13225;47.804;12.116;2022-10-20T16:37:53;15.10;99.90
25280;DHT22;13225;47.804;12.116;2022-10-20T16:40:18;15.10;99.90
25280;DHT22;13225;47.804;12.116;2022-10-20T16:42:44;15.00;99.90
25280;DHT22;13225;47.804;12.116;2022-10-20T16:45:10;15.00;99.90
25280;DHT22;13225;47.804;12.116;2022-10-20T16:47:36;15.00;99.90
25280;DHT22;13225;47.804;12.116;2022-10-20T16:50:03;14.90;99.90
25280;DHT22;13225;47.804;12.116;2022-10-20T16:52:29;14.90;99.90
25280;DHT22;13225;47.804;12.116;2022-10-20T16:54:54;14.90;99.90
25280;DHT22;13225;47.804;12.116;2022-10-20T16:57:20;14.90;99.90
25280;DHT22;13225;47.804;12.116;2022-10-20T16:59:46;14.80;99.90
25280;DHT22;13225;47.804;12.116;2022-10-20T17:02:15;14.70;99.90
25280;DHT22;13225;47.804;12.116;2022-10-20T17:04:43;14.70;99.90
25280;DHT22;13225;47.804;12.116;2022-10-20T17:07:11;14.60;99.90
25280;DHT22;13225;47.804;12.116;2022-10-20T17:09:39;14.50;99.90
25280;DHT22;13225;47.804;12.116;2022-10-20T17:12:04;14.50;99.90
25280;DHT22;13225;47.804;12.116;2022-10-20T17:14:30;14.40;99.90
25280;DHT22;13225;47.804;12.116;2022-10-20T17:16:56;14.30;99.90
25280;DHT22;13225;47.804;12.116;2022-10-20T17:19:21;14.20;99.90
25280;DHT22;13225;47.804;12.116;2022-10-20T17:21:47;14.10;99.90
25280;DHT22;13225;47.804;12.116;2022-10-20T17:24:13;13.90;99.90
25280;DHT22;13225;47.804;12.116;2022-10-20T17:26:39;13.80;99.90